Kettle Falls, Washington
Current Conditions -  °F | °C
As of 1:14 PM on Monday 24 Nov 2014 (Local Time) from CYCG Reporting Station
Light Snow Light Snow  
Wind Chill: 23°   Ceiling: 2500
Heat Index: 32°   Visibility: 1mi
Dew Point: 32°   Wind: 13mph
Humidity: 100%   Direction: 190°S
Pressure: 30.28"   Gusts: NA
Location:  48.61°N, 118.06°W
Report Text: CYCG 242114Z 19011KT 1SM -SN SCT004 BKN025 OVC040 00/M00 A3028 RMK SN2SF1SC3SC2 SLP272
Loading
Personal Weather Stations






























Interactive Weather Map New forecast layout! Learn more

10-Day Weather Forecast

Advertisements
Track Severe Weather on mobile